Time;durP1;ratioP1;P1;durP2;ratioP2;P2;SDS_P1;SDS_P2;PMS_P1;PMS_P2;Temp;Humidity;BMP_temperature;BMP_pressure;BME280_temperature;BME280_humidity;BME280_pressure;Samples;Min_cycle;Max_cycle;Signal;HPM_P1;HPM_P2
2021/08/23 00:00:26;;;;;;;23.11;13.37;;;;;;;;;;359978;147;857171;-57
2021/08/23 00:01:28;;;;;;;24.86;13.84;;;;;;;;;;359184;148;858507;-57
2021/08/23 00:02:29;;;;;;;24.66;13.64;;;;;;;;;;351291;151;859074;-59
2021/08/23 00:03:31;;;;;;;22.61;13.03;;;;;;;;;;359430;147;857211;-58
2021/08/23 00:04:32;;;;;;;25.35;12.95;;;;;;;;;;359809;147;866536;-57
2021/08/23 00:05:34;;;;;;;27.54;14.51;;;;;;;;;;359034;150;857308;-57
2021/08/23 00:06:37;;;;;;;23.25;14.11;;;;;;;;;;358215;147;858903;-58
2021/08/23 00:07:39;;;;;;;28.81;13.57;;;;;;;;;;358788;147;858971;-57
2021/08/23 00:08:40;;;;;;;24.72;13.00;;;;;;;;;;360536;148;858892;-58
2021/08/23 00:09:42;;;;;;;25.11;12.54;;;;;;;;;;360567;148;856357;-57
2021/08/23 00:10:44;;;;;;;24.91;12.84;;;;;;;;;;359826;147;856267;-58
2021/08/23 00:11:46;;;;;;;23.06;13.13;;;;;;;;;;359179;147;858141;-57
2021/08/23 00:12:48;;;;;;;22.21;12.33;;;;;;;;;;359875;148;863656;-58
2021/08/23 00:13:49;;;;;;;23.99;12.91;;;;;;;;;;359993;147;857279;-58
2021/08/23 00:14:51;;;;;;;27.76;13.54;;;;;;;;;;360144;147;857243;-58
2021/08/23 00:15:55;;;;;;;24.48;14.28;;;;;;;;;;359359;148;858954;-57
2021/08/23 00:16:56;;;;;;;25.61;13.87;;;;;;;;;;358283;148;859026;-57
2021/08/23 00:17:59;;;;;;;23.68;13.72;;;;;;;;;;361831;147;864997;-57
2021/08/23 00:19:00;;;;;;;26.43;14.54;;;;;;;;;;360719;148;866615;-57
2021/08/23 00:20:03;;;;;;;25.85;14.29;;;;;;;;;;359395;148;860376;-57
2021/08/23 00:21:11;;;;;;;24.26;14.03;;;;;;;;;;358952;147;857163;-57
2021/08/23 00:23:28;;;;;;;31.52;13.52;;;;;;;;;;333869;160;859893;-57
2021/08/23 00:24:29;;;;;;;24.37;13.25;;;;;;;;;;332901;157;859659;-58
2021/08/23 00:25:31;;;;;;;27.13;14.16;;;;;;;;;;333943;160;857794;-56
2021/08/23 00:26:33;;;;;;;27.87;13.55;;;;;;;;;;355685;148;857757;-56
2021/08/23 00:27:35;;;;;;;25.39;14.24;;;;;;;;;;359422;148;858869;-56
2021/08/23 00:28:36;;;;;;;25.41;13.61;;;;;;;;;;359616;147;857227;-56
2021/08/23 00:29:38;;;;;;;24.27;13.77;;;;;;;;;;358239;148;858947;-56
2021/08/23 00:30:40;;;;;;;24.91;13.33;;;;;;;;;;358181;150;857482;-57
2021/08/23 00:31:41;;;;;;;22.77;12.38;;;;;;;;;;359564;147;858077;-56
2021/08/23 00:32:43;;;;;;;28.34;13.94;;;;;;;;;;359246;148;856343;-59
2021/08/23 00:33:44;;;;;;;26.09;14.04;;;;;;;;;;359986;148;857994;-58
2021/08/23 00:34:46;;;;;;;23.81;13.69;;;;;;;;;;359475;148;857237;-57
2021/08/23 00:35:48;;;;;;;25.04;13.32;;;;;;;;;;360707;147;857692;-58
2021/08/23 00:36:49;;;;;;;29.01;14.35;;;;;;;;;;358389;148;866793;-57
2021/08/23 00:37:51;;;;;;;25.79;13.98;;;;;;;;;;362648;148;866721;-57
2021/08/23 00:38:52;;;;;;;30.44;14.40;;;;;;;;;;360321;147;858825;-57
2021/08/23 00:39:54;;;;;;;27.73;14.37;;;;;;;;;;359057;148;859420;-56
2021/08/23 00:40:57;;;;;;;25.29;14.32;;;;;;;;;;358856;148;859142;-57
2021/08/23 00:41:59;;;;;;;26.41;13.86;;;;;;;;;;360648;148;858961;-57
2021/08/23 00:43:00;;;;;;;30.06;13.63;;;;;;;;;;360146;147;865909;-58
2021/08/23 00:44:02;;;;;;;23.32;12.52;;;;;;;;;;351867;152;864870;-57
2021/08/23 00:45:04;;;;;;;26.46;13.98;;;;;;;;;;359783;148;866425;-58
2021/08/23 00:46:06;;;;;;;26.27;13.81;;;;;;;;;;361465;147;857307;-56
2021/08/23 00:47:08;;;;;;;24.94;13.70;;;;;;;;;;358406;148;859038;-59
2021/08/23 00:48:10;;;;;;;21.17;13.59;;;;;;;;;;357981;148;865222;-56
2021/08/23 00:49:13;;;;;;;25.34;13.71;;;;;;;;;;352089;150;857374;-57
2021/08/23 00:50:15;;;;;;;23.50;14.07;;;;;;;;;;352784;150;859030;-57
2021/08/23 00:51:17;;;;;;;26.16;14.19;;;;;;;;;;358772;147;859146;-57
2021/08/23 00:52:19;;;;;;;25.03;13.71;;;;;;;;;;358985;148;857462;-56
2021/08/23 00:53:20;;;;;;;26.21;13.56;;;;;;;;;;359780;147;859226;-56
2021/08/23 00:54:22;;;;;;;27.27;13.53;;;;;;;;;;360162;148;859528;-56
2021/08/23 00:55:24;;;;;;;26.75;14.46;;;;;;;;;;362440;148;857142;-57
2021/08/23 00:56:27;;;;;;;25.37;12.94;;;;;;;;;;359700;147;857387;-57
2021/08/23 00:57:28;;;;;;;25.38;14.27;;;;;;;;;;360593;147;858277;-57
2021/08/23 00:58:30;;;;;;;23.59;13.90;;;;;;;;;;355298;150;857153;-57
2021/08/23 00:59:32;;;;;;;26.79;13.62;;;;;;;;;;356734;148;857110;-57
2021/08/23 01:00:36;;;;;;;28.02;14.11;;;;;;;;;;356446;149;857579;-56
2021/08/23 01:01:40;;;;;;;25.81;14.67;;;;;;;;;;355550;150;865038;-56
2021/08/23 01:02:46;;;;;;;25.59;13.83;;;;;;;;;;357256;150;857189;-56
2021/08/23 01:03:50;;;;;;;26.43;14.04;;;;;;;;;;354244;149;858796;-57
2021/08/23 01:05:03;;;;;;;25.44;14.31;;;;;;;;;;353028;150;857182;-57
2021/08/23 01:06:05;;;;;;;21.40;12.28;;;;;;;;;;356765;150;857241;-56
2021/08/23 01:07:07;;;;;;;25.67;14.26;;;;;;;;;;356098;148;857215;-56
2021/08/23 01:08:11;;;;;;;31.28;15.79;;;;;;;;;;354018;149;866383;-57
2021/08/23 01:09:12;;;;;;;24.93;14.39;;;;;;;;;;355162;150;858274;-57
2021/08/23 01:10:15;;;;;;;30.62;13.92;;;;;;;;;;355822;148;857406;-56
2021/08/23 01:11:16;;;;;;;25.03;15.17;;;;;;;;;;356217;149;858851;-57
2021/08/23 01:12:18;;;;;;;31.41;14.77;;;;;;;;;;356482;150;856406;-57
2021/08/23 01:13:22;;;;;;;27.36;14.07;;;;;;;;;;356836;150;857353;-57
2021/08/23 01:14:24;;;;;;;27.38;15.15;;;;;;;;;;348245;151;857183;-56
2021/08/23 01:15:26;;;;;;;27.41;14.49;;;;;;;;;;347489;152;864764;-57
2021/08/23 01:16:29;;;;;;;25.10;13.91;;;;;;;;;;353489;151;858877;-58
2021/08/23 01:17:31;;;;;;;25.77;14.56;;;;;;;;;;356874;148;858201;-58
2021/08/23 01:18:32;;;;;;;23.84;14.81;;;;;;;;;;354845;149;857302;-57
2021/08/23 01:19:34;;;;;;;30.01;14.39;;;;;;;;;;353503;151;857199;-57
2021/08/23 01:20:37;;;;;;;26.39;14.51;;;;;;;;;;356699;150;857463;-57
2021/08/23 01:21:39;;;;;;;25.14;14.53;;;;;;;;;;355598;147;857769;-57
2021/08/23 01:22:50;;;;;;;26.97;14.03;;;;;;;;;;355901;149;857332;-57
2021/08/23 01:23:52;;;;;;;29.81;13.98;;;;;;;;;;354858;150;866569;-57
2021/08/23 01:24:54;;;;;;;27.39;14.05;;;;;;;;;;355958;148;857040;-57
2021/08/23 01:25:55;;;;;;;30.30;14.89;;;;;;;;;;356580;149;857245;-57
2021/08/23 01:26:58;;;;;;;25.92;13.91;;;;;;;;;;357044;150;858513;-58
2021/08/23 01:28:02;;;;;;;24.11;14.24;;;;;;;;;;357026;148;857143;-57
2021/08/23 01:29:17;;;;;;;25.21;13.77;;;;;;;;;;355366;149;858983;-58
2021/08/23 01:30:20;;;;;;;23.88;13.74;;;;;;;;;;356066;150;858738;-58
2021/08/23 01:31:38;;;;;;;29.36;14.41;;;;;;;;;;352534;148;858444;-57
2021/08/23 01:32:40;;;;;;;28.02;14.69;;;;;;;;;;354676;149;861783;-57
2021/08/23 01:33:42;;;;;;;25.47;12.50;;;;;;;;;;356485;151;858728;-57
2021/08/23 01:34:44;;;;;;;29.96;14.69;;;;;;;;;;356805;148;857275;-57
2021/08/23 01:35:45;;;;;;;25.13;13.50;;;;;;;;;;355929;148;867203;-57
2021/08/23 01:36:48;;;;;;;25.73;13.55;;;;;;;;;;351144;149;857692;-56
2021/08/23 01:37:49;;;;;;;29.71;14.49;;;;;;;;;;357041;150;857221;-57
2021/08/23 01:38:51;;;;;;;21.84;12.71;;;;;;;;;;354473;148;866875;-56
2021/08/23 01:39:52;;;;;;;25.64;14.21;;;;;;;;;;355807;149;865149;-56
2021/08/23 01:41:00;;;;;;;28.17;14.22;;;;;;;;;;355299;151;859371;-57
2021/08/23 01:42:02;;;;;;;24.19;14.59;;;;;;;;;;355772;148;865902;-57
2021/08/23 01:43:03;;;;;;;24.87;14.21;;;;;;;;;;355771;149;857715;-57
2021/08/23 01:44:05;;;;;;;25.31;13.63;;;;;;;;;;355578;150;864934;-57
2021/08/23 01:45:07;;;;;;;23.33;14.05;;;;;;;;;;357869;150;857240;-57
2021/08/23 01:46:10;;;;;;;23.46;13.63;;;;;;;;;;355104;148;865333;-58
2021/08/23 01:47:11;;;;;;;22.40;13.27;;;;;;;;;;354638;149;859249;-57
2021/08/23 01:48:13;;;;;;;25.65;14.15;;;;;;;;;;356378;150;857572;-57
2021/08/23 01:49:14;;;;;;;27.75;14.51;;;;;;;;;;355061;148;857275;-57
2021/08/23 01:50:17;;;;;;;28.69;15.30;;;;;;;;;;356271;149;859016;-57
2021/08/23 01:51:19;;;;;;;23.68;14.23;;;;;;;;;;354845;149;857289;-56
2021/08/23 01:52:21;;;;;;;26.57;13.86;;;;;;;;;;355474;151;858319;-56
2021/08/23 01:53:22;;;;;;;27.39;14.64;;;;;;;;;;357319;148;857293;-56
2021/08/23 01:54:24;;;;;;;27.07;14.34;;;;;;;;;;355630;149;859273;-56
2021/08/23 01:55:25;;;;;;;20.91;12.52;;;;;;;;;;354380;151;857234;-56
2021/08/23 01:56:27;;;;;;;23.34;13.51;;;;;;;;;;356244;148;857098;-57
2021/08/23 01:57:28;;;;;;;29.11;13.74;;;;;;;;;;355722;149;864683;-57
2021/08/23 01:58:30;;;;;;;25.07;13.69;;;;;;;;;;357762;149;857276;-57
2021/08/23 01:59:32;;;;;;;23.68;13.88;;;;;;;;;;358916;149;858797;-56
2021/08/23 02:00:35;;;;;;;27.01;14.12;;;;;;;;;;357554;148;857979;-57
2021/08/23 02:01:37;;;;;;;26.19;14.01;;;;;;;;;;358345;148;857694;-58
2021/08/23 02:02:38;;;;;;;22.14;13.93;;;;;;;;;;359283;149;865385;-58
2021/08/23 02:03:40;;;;;;;24.61;14.26;;;;;;;;;;357764;148;857243;-58
2021/08/23 02:04:41;;;;;;;24.27;14.15;;;;;;;;;;357788;148;857084;-58
2021/08/23 02:05:43;;;;;;;23.59;13.81;;;;;;;;;;357614;148;866330;-57
2021/08/23 02:06:45;;;;;;;26.15;13.94;;;;;;;;;;359212;148;865966;-59
2021/08/23 02:07:46;;;;;;;20.88;13.31;;;;;;;;;;358859;148;859620;-57
2021/08/23 02:08:48;;;;;;;24.61;13.74;;;;;;;;;;358045;148;857437;-57
2021/08/23 02:09:49;;;;;;;29.16;13.56;;;;;;;;;;358695;149;859907;-58
2021/08/23 02:10:51;;;;;;;25.71;13.59;;;;;;;;;;358198;147;858778;-58
2021/08/23 02:11:53;;;;;;;23.00;13.40;;;;;;;;;;358141;147;857251;-58
2021/08/23 02:12:55;;;;;;;28.95;13.05;;;;;;;;;;360582;147;857297;-57
2021/08/23 02:13:56;;;;;;;25.59;13.59;;;;;;;;;;357735;148;865834;-56
2021/08/23 02:14:58;;;;;;;22.69;13.89;;;;;;;;;;358659;148;857312;-56
2021/08/23 02:15:59;;;;;;;23.40;13.55;;;;;;;;;;357181;148;859058;-57
2021/08/23 02:17:01;;;;;;;24.46;13.14;;;;;;;;;;358044;150;857203;-58
2021/08/23 02:18:03;;;;;;;23.69;12.96;;;;;;;;;;356997;148;857204;-56
2021/08/23 02:19:05;;;;;;;25.04;13.41;;;;;;;;;;356326;148;864894;-56
2021/08/23 02:20:08;;;;;;;22.37;13.31;;;;;;;;;;360171;147;857474;-57
2021/08/23 02:21:09;;;;;;;24.52;13.57;;;;;;;;;;357847;148;857366;-57
2021/08/23 02:22:11;;;;;;;22.17;13.41;;;;;;;;;;357259;148;866316;-57
2021/08/23 02:23:12;;;;;;;22.67;13.76;;;;;;;;;;356985;148;857357;-57
2021/08/23 02:24:14;;;;;;;21.82;13.28;;;;;;;;;;361161;148;864862;-57
2021/08/23 02:25:21;;;;;;;22.91;14.12;;;;;;;;;;358196;149;864987;-57
2021/08/23 02:26:22;;;;;;;23.57;12.83;;;;;;;;;;357567;147;857334;-58
2021/08/23 02:27:23;;;;;;;23.74;13.43;;;;;;;;;;358429;150;857541;-57
2021/08/23 02:28:25;;;;;;;22.09;14.16;;;;;;;;;;358611;149;866059;-59
2021/08/23 02:29:26;;;;;;;22.44;13.08;;;;;;;;;;357798;148;859807;-58
2021/08/23 02:30:28;;;;;;;23.62;13.82;;;;;;;;;;358652;147;864766;-59
2021/08/23 02:31:30;;;;;;;21.42;12.91;;;;;;;;;;357515;149;857085;-59
2021/08/23 02:32:33;;;;;;;24.41;13.46;;;;;;;;;;357816;148;857363;-59
2021/08/23 02:33:35;;;;;;;24.31;12.74;;;;;;;;;;358531;148;858763;-57
2021/08/23 02:34:36;;;;;;;22.44;12.76;;;;;;;;;;360522;148;857179;-57
2021/08/23 02:35:38;;;;;;;25.76;13.24;;;;;;;;;;359157;148;864967;-57
2021/08/23 02:36:40;;;;;;;21.19;13.07;;;;;;;;;;358549;148;857207;-57
2021/08/23 02:37:41;;;;;;;21.35;12.71;;;;;;;;;;358597;148;866233;-56
2021/08/23 02:38:44;;;;;;;21.03;12.97;;;;;;;;;;357908;149;857885;-57
2021/08/23 02:39:45;;;;;;;22.63;13.46;;;;;;;;;;357394;148;864762;-57
2021/08/23 02:40:47;;;;;;;18.69;12.85;;;;;;;;;;357199;148;864772;-57
2021/08/23 02:41:53;;;;;;;22.25;13.33;;;;;;;;;;350993;150;857721;-58
2021/08/23 02:42:52;;;;;;;23.55;13.08;;;;;;;;;;350457;151;858176;-57
2021/08/23 02:43:54;;;;;;;18.97;12.51;;;;;;;;;;350842;150;859675;-57
2021/08/23 02:44:56;;;;;;;21.81;12.75;;;;;;;;;;346826;153;857358;-57
2021/08/23 02:45:57;;;;;;;20.06;12.72;;;;;;;;;;347523;152;859243;-57
2021/08/23 02:46:59;;;;;;;25.90;12.85;;;;;;;;;;353429;150;857171;-57
2021/08/23 02:48:00;;;;;;;20.17;11.91;;;;;;;;;;349137;151;864752;-57
2021/08/23 02:49:02;;;;;;;20.37;12.49;;;;;;;;;;350089;152;857171;-57
2021/08/23 02:50:04;;;;;;;18.86;12.34;;;;;;;;;;351465;150;857221;-56
2021/08/23 02:51:06;;;;;;;20.71;12.78;;;;;;;;;;351292;151;857833;-57
2021/08/23 02:52:08;;;;;;;23.60;12.88;;;;;;;;;;346459;155;858398;-57
2021/08/23 02:53:09;;;;;;;23.03;12.32;;;;;;;;;;346495;154;859886;-57
2021/08/23 02:54:11;;;;;;;21.81;12.86;;;;;;;;;;347036;152;857516;-57
2021/08/23 02:55:12;;;;;;;22.18;12.96;;;;;;;;;;347749;152;857260;-57
2021/08/23 02:56:14;;;;;;;23.31;12.74;;;;;;;;;;346844;153;866498;-57
2021/08/23 02:57:16;;;;;;;22.13;13.09;;;;;;;;;;348211;152;857161;-57
2021/08/23 02:58:18;;;;;;;21.33;12.13;;;;;;;;;;342795;153;866631;-57
2021/08/23 02:59:19;;;;;;;21.73;12.94;;;;;;;;;;349983;152;857326;-56
2021/08/23 03:00:21;;;;;;;22.34;12.01;;;;;;;;;;350948;150;858225;-57
2021/08/23 03:01:23;;;;;;;20.69;12.24;;;;;;;;;;360036;148;858618;-59
2021/08/23 03:02:24;;;;;;;20.49;11.46;;;;;;;;;;359395;148;857687;-59
2021/08/23 03:03:26;;;;;;;21.06;12.27;;;;;;;;;;359717;147;857591;-59
2021/08/23 03:04:28;;;;;;;23.38;12.06;;;;;;;;;;357618;147;864721;-58
2021/08/23 03:05:29;;;;;;;23.70;12.41;;;;;;;;;;356903;148;857144;-58
2021/08/23 03:06:31;;;;;;;23.30;12.57;;;;;;;;;;359162;147;864810;-58
2021/08/23 03:07:33;;;;;;;20.05;12.27;;;;;;;;;;360199;147;857152;-58
2021/08/23 03:08:35;;;;;;;22.65;12.13;;;;;;;;;;359741;148;866023;-57
2021/08/23 03:09:36;;;;;;;20.56;12.16;;;;;;;;;;360699;148;859375;-58
2021/08/23 03:10:39;;;;;;;20.32;12.65;;;;;;;;;;358741;148;858528;-56
2021/08/23 03:11:41;;;;;;;21.95;11.79;;;;;;;;;;358056;148;857344;-57
2021/08/23 03:12:42;;;;;;;19.49;11.14;;;;;;;;;;359067;148;857994;-57
2021/08/23 03:13:44;;;;;;;22.80;12.24;;;;;;;;;;359360;147;857122;-57
2021/08/23 03:14:45;;;;;;;22.39;12.04;;;;;;;;;;357320;147;864833;-56
2021/08/23 03:15:48;;;;;;;19.61;11.74;;;;;;;;;;360087;148;857173;-57
2021/08/23 03:16:51;;;;;;;22.86;12.47;;;;;;;;;;362555;148;864975;-58
2021/08/23 03:17:52;;;;;;;19.87;11.70;;;;;;;;;;356988;147;858093;-57
2021/08/23 03:18:54;;;;;;;19.76;11.61;;;;;;;;;;358917;148;864709;-58
2021/08/23 03:19:55;;;;;;;21.41;11.59;;;;;;;;;;359812;148;857249;-56
2021/08/23 03:20:57;;;;;;;22.19;11.42;;;;;;;;;;355772;148;857253;-58
2021/08/23 03:21:59;;;;;;;21.86;12.26;;;;;;;;;;358531;148;857244;-61
2021/08/23 03:23:00;;;;;;;19.58;10.82;;;;;;;;;;360573;147;866557;-59
2021/08/23 03:24:02;;;;;;;20.09;10.36;;;;;;;;;;358720;147;858831;-59
2021/08/23 03:25:04;;;;;;;21.12;12.16;;;;;;;;;;358714;147;860120;-59
2021/08/23 03:26:06;;;;;;;19.02;11.40;;;;;;;;;;358445;148;864714;-59
2021/08/23 03:27:07;;;;;;;28.44;12.23;;;;;;;;;;358456;148;859419;-58
2021/08/23 03:28:09;;;;;;;19.79;11.79;;;;;;;;;;361210;147;857398;-59
2021/08/23 03:29:12;;;;;;;20.83;11.71;;;;;;;;;;359212;147;859524;-60
2021/08/23 03:30:14;;;;;;;16.96;11.28;;;;;;;;;;357362;148;859033;-60
2021/08/23 03:31:16;;;;;;;21.04;12.39;;;;;;;;;;359632;148;857771;-60
2021/08/23 03:32:18;;;;;;;17.20;11.01;;;;;;;;;;358968;148;858819;-60
2021/08/23 03:33:19;;;;;;;21.32;12.95;;;;;;;;;;357769;148;866176;-60
2021/08/23 03:34:21;;;;;;;19.69;12.29;;;;;;;;;;358178;148;859772;-58
2021/08/23 03:35:23;;;;;;;20.53;12.17;;;;;;;;;;357961;148;859972;-59
2021/08/23 03:36:26;;;;;;;18.62;11.42;;;;;;;;;;357566;148;859966;-58
2021/08/23 03:37:28;;;;;;;22.15;12.24;;;;;;;;;;359974;147;857127;-57
2021/08/23 03:38:30;;;;;;;20.35;11.33;;;;;;;;;;358502;148;858854;-58
2021/08/23 03:39:31;;;;;;;19.90;11.46;;;;;;;;;;359136;148;857604;-58
2021/08/23 03:40:33;;;;;;;21.85;12.12;;;;;;;;;;358724;148;864675;-57
2021/08/23 03:41:35;;;;;;;19.28;11.78;;;;;;;;;;359132;147;857202;-57
2021/08/23 03:42:36;;;;;;;19.36;12.21;;;;;;;;;;357682;148;864714;-55
2021/08/23 03:43:38;;;;;;;18.16;11.72;;;;;;;;;;359379;148;857266;-55
2021/08/23 03:44:40;;;;;;;19.27;11.97;;;;;;;;;;360051;148;858938;-56
2021/08/23 03:45:41;;;;;;;20.14;11.47;;;;;;;;;;361221;148;865670;-56
2021/08/23 03:46:44;;;;;;;17.90;10.68;;;;;;;;;;358449;148;858552;-56
2021/08/23 03:47:45;;;;;;;17.54;10.89;;;;;;;;;;359314;148;866636;-57
2021/08/23 03:48:47;;;;;;;22.00;11.73;;;;;;;;;;359159;148;864930;-57
2021/08/23 03:49:48;;;;;;;18.39;11.13;;;;;;;;;;358297;147;857247;-57
2021/08/23 03:50:52;;;;;;;21.34;11.22;;;;;;;;;;360611;147;857302;-58
2021/08/23 03:51:53;;;;;;;17.63;11.47;;;;;;;;;;352167;151;857354;-57
2021/08/23 03:52:55;;;;;;;18.94;11.02;;;;;;;;;;358656;148;858395;-56
2021/08/23 03:53:56;;;;;;;19.91;11.84;;;;;;;;;;358902;147;857363;-57
2021/08/23 03:54:58;;;;;;;21.06;11.55;;;;;;;;;;358219;148;859887;-57
2021/08/23 03:56:00;;;;;;;23.79;11.64;;;;;;;;;;358904;148;859913;-58
2021/08/23 03:57:02;;;;;;;16.08;10.87;;;;;;;;;;359191;147;857258;-58
2021/08/23 04:17:49;;;;;;;19.32;10.27;;;;;;;14.14;68.54;100249.70;375449;142;881211;-59
2021/08/23 04:18:50;;;;;;;22.37;10.96;;;;;;;14.07;68.72;100255.90;367851;144;857792;-59
2021/08/23 04:19:52;;;;;;;18.42;10.71;;;;;;;14.11;68.69;100251.48;369265;144;864816;-58
2021/08/23 04:20:54;;;;;;;26.05;12.21;;;;;;;14.14;68.78;100254.03;366211;144;864932;-58
2021/08/23 04:21:56;;;;;;;20.32;11.16;;;;;;;14.17;68.85;100252.24;366070;144;857272;-60
2021/08/23 04:22:58;;;;;;;20.77;11.60;;;;;;;14.17;68.85;100252.24;367209;144;864714;-58
2021/08/23 04:24:00;;;;;;;21.83;11.01;;;;;;;14.27;68.96;100259.89;366644;144;857084;-59
2021/08/23 04:25:02;;;;;;;21.59;11.45;;;;;;;14.34;68.82;100258.05;367104;144;857198;-60
2021/08/23 04:26:04;;;;;;;20.94;10.87;;;;;;;14.34;68.82;100258.05;367081;144;857201;-57
2021/08/23 04:27:06;;;;;;;19.46;10.46;;;;;;;14.43;68.63;100257.87;359049;147;860446;-56
2021/08/23 04:28:08;;;;;;;23.43;11.18;;;;;;;14.45;68.82;100251.73;366325;144;865358;-55
2021/08/23 04:29:09;;;;;;;15.54;10.57;;;;;;;;;;367186;144;858257;-58
2021/08/23 04:30:12;;;;;;;16.37;10.62;;;;;;;;;;366003;144;866325;-56
2021/08/23 04:31:13;;;;;;;16.93;10.83;;;;;;;;;;366072;144;858704;-56
2021/08/23 04:32:15;;;;;;;21.69;11.42;;;;;;;;;;366987;144;858780;-57
2021/08/23 04:33:18;;;;;;;18.39;10.84;;;;;;;;;;368451;144;857307;-59
2021/08/23 04:34:19;;;;;;;18.34;11.25;;;;;;;;;;369109;144;856936;-58
2021/08/23 04:35:21;;;;;;;18.78;11.16;;;;;;;;;;366850;144;857938;-58
2021/08/23 04:36:23;;;;;;;18.79;10.44;;;;;;;;;;365227;144;857203;-58
2021/08/23 04:37:25;;;;;;;17.49;10.24;;;;;;;;;;364733;145;857121;-57
2021/08/23 04:38:26;;;;;;;16.00;10.62;;;;;;;;;;364485;147;858956;-59
2021/08/23 04:39:28;;;;;;;19.91;10.51;;;;;;;;;;364257;144;857764;-57
2021/08/23 04:40:31;;;;;;;21.39;10.53;;;;;;;;;;365151;144;859122;-58
2021/08/23 04:41:36;;;;;;;20.37;11.09;;;;;;;;;;366344;145;858889;-58
2021/08/23 04:42:38;;;;;;;21.74;11.06;;;;;;;;;;364198;145;857188;-59
2021/08/23 04:43:39;;;;;;;17.57;10.16;;;;;;;;;;366050;144;857365;-59
2021/08/23 04:44:43;;;;;;;16.71;9.89;;;;;;;;;;365434;145;857441;-59
2021/08/23 04:45:44;;;;;;;18.10;10.55;;;;;;;;;;365938;145;859146;-59
2021/08/23 04:46:49;;;;;;;15.32;9.76;;;;;;;;;;365470;144;857637;-58
2021/08/23 04:47:51;;;;;;;18.39;9.83;;;;;;;;;;364847;144;857142;-58
2021/08/23 04:48:53;;;;;;;15.40;10.15;;;;;;;;;;364733;145;859003;-60
2021/08/23 04:49:54;;;;;;;19.89;10.64;;;;;;;;;;365928;145;866372;-58
2021/08/23 04:50:57;;;;;;;18.14;10.62;;;;;;;;;;364252;144;858250;-58
2021/08/23 04:51:59;;;;;;;19.05;10.44;;;;;;;;;;364843;145;857775;-58
2021/08/23 04:53:00;;;;;;;16.98;9.86;;;;;;;;;;365683;145;857644;-58
2021/08/23 04:54:02;;;;;;;16.69;10.19;;;;;;;;;;364413;144;857230;-59
2021/08/23 04:55:04;;;;;;;17.03;10.19;;;;;;;;;;364391;144;857330;-58
2021/08/23 04:56:10;;;;;;;17.59;10.53;;;;;;;;;;364481;145;857175;-57
2021/08/23 04:57:12;;;;;;;15.96;9.64;;;;;;;;;;364957;144;858677;-58
2021/08/23 04:58:13;;;;;;;18.40;10.21;;;;;;;;;;365311;145;858158;-59
2021/08/23 04:59:15;;;;;;;18.30;10.02;;;;;;;;;;359276;148;857452;-57
2021/08/23 05:00:19;;;;;;;19.09;10.88;;;;;;;;;;359384;147;858290;-57
2021/08/23 05:01:21;;;;;;;20.15;10.07;;;;;;;;;;366147;144;857260;-57
2021/08/23 05:02:23;;;;;;;17.36;9.84;;;;;;;;;;364753;145;865638;-57
2021/08/23 05:03:24;;;;;;;18.53;10.70;;;;;;;;;;366715;145;857145;-58
2021/08/23 05:04:26;;;;;;;20.85;10.66;;;;;;;;;;365432;144;857098;-58
2021/08/23 05:05:27;;;;;;;17.11;10.02;;;;;;;;;;365092;145;857170;-58
2021/08/23 05:06:29;;;;;;;18.04;11.06;;;;;;;;;;364596;145;857241;-59
2021/08/23 05:07:31;;;;;;;19.93;9.73;;;;;;;;;;364739;145;857050;-59
2021/08/23 05:08:32;;;;;;;19.16;11.21;;;;;;;;;;365332;145;860139;-58
2021/08/23 05:09:34;;;;;;;19.49;11.28;;;;;;;;;;364951;145;857408;-60
2021/08/23 05:10:35;;;;;;;16.06;10.48;;;;;;;;;;364490;145;857717;-58
2021/08/23 05:11:37;;;;;;;17.00;9.71;;;;;;;;;;364393;144;857402;-58
2021/08/23 05:12:39;;;;;;;15.59;10.50;;;;;;;;;;365538;145;857261;-57
2021/08/23 05:13:40;;;;;;;13.44;9.49;;;;;;;;;;367714;145;858115;-57
2021/08/23 05:14:42;;;;;;;15.54;9.44;;;;;;;;;;365536;144;859118;-57
2021/08/23 05:15:43;;;;;;;17.86;10.16;;;;;;;;;;367390;144;865405;-59
2021/08/23 05:16:47;;;;;;;21.62;9.92;;;;;;;;;;364285;147;857241;-59
2021/08/23 05:17:48;;;;;;;19.13;9.96;;;;;;;;;;362211;145;858374;-58
2021/08/23 05:18:50;;;;;;;17.49;9.94;;;;;;;;;;362973;145;857256;-58
2021/08/23 05:19:52;;;;;;;14.72;9.23;;;;;;;;;;362600;146;857289;-58
2021/08/23 05:20:58;;;;;;;16.70;9.61;;;;;;;;;;362989;146;858966;-57
2021/08/23 05:21:59;;;;;;;14.44;9.36;;;;;;;;;;362000;146;857740;-58
2021/08/23 05:23:00;;;;;;;16.52;9.64;;;;;;;;;;363879;146;859462;-58
2021/08/23 05:24:03;;;;;;;16.27;9.71;;;;;;;;;;364859;147;857214;-57
2021/08/23 05:25:05;;;;;;;15.47;9.23;;;;;;;;;;363599;147;859054;-57
2021/08/23 05:26:08;;;;;;;13.56;8.91;;;;;;;;;;362441;146;862856;-57
2021/08/23 05:27:09;;;;;;;16.42;9.06;;;;;;;;;;361721;147;857181;-60
2021/08/23 05:28:11;;;;;;;14.24;9.09;;;;;;;;;;361034;147;858825;-58
2021/08/23 05:29:12;;;;;;;13.45;8.92;;;;;;;;;;361280;146;865341;-59
2021/08/23 05:30:16;;;;;;;16.62;8.85;;;;;;;;;;362731;146;857296;-61
2021/08/23 05:31:17;;;;;;;12.78;8.41;;;;;;;;;;362664;147;857670;-59
2021/08/23 05:32:19;;;;;;;15.43;7.99;;;;;;;;;;363061;146;865083;-59
2021/08/23 05:33:20;;;;;;;14.48;8.94;;;;;;;;;;362574;145;857338;-58
2021/08/23 05:34:22;;;;;;;13.60;8.90;;;;;;;;;;360893;145;857213;-57
2021/08/23 05:35:24;;;;;;;12.83;8.36;;;;;;;;;;361998;145;858875;-58
2021/08/23 05:36:27;;;;;;;15.54;8.93;;;;;;;;;;360383;146;858972;-59
2021/08/23 05:37:29;;;;;;;14.33;8.54;;;;;;;;;;362746;146;857177;-59
2021/08/23 05:38:30;;;;;;;12.51;7.89;;;;;;;;;;362969;147;858618;-59
2021/08/23 05:39:32;;;;;;;12.58;7.80;;;;;;;;;;360812;147;866366;-58
2021/08/23 05:40:35;;;;;;;14.41;8.57;;;;;;;;;;363248;146;864950;-58
2021/08/23 05:41:37;;;;;;;13.51;7.99;;;;;;;;;;359440;145;857260;-57
2021/08/23 05:42:38;;;;;;;14.80;8.36;;;;;;;;;;362817;145;857377;-59
2021/08/23 05:43:40;;;;;;;13.48;8.02;;;;;;;;;;361790;145;857312;-57
2021/08/23 05:44:41;;;;;;;12.23;7.50;;;;;;;;;;362656;147;857879;-58
2021/08/23 05:45:43;;;;;;;10.59;7.56;;;;;;;;;;361641;145;858148;-56
2021/08/23 05:46:46;;;;;;;12.37;7.89;;;;;;;;;;361615;147;857478;-57
2021/08/23 05:47:48;;;;;;;14.93;7.86;;;;;;;;;;362417;146;857162;-57
2021/08/23 05:48:49;;;;;;;13.56;8.22;;;;;;;;;;361518;147;867561;-58
2021/08/23 05:49:51;;;;;;;10.61;7.63;;;;;;;;;;362390;146;860021;-57
2021/08/23 05:50:54;;;;;;;13.71;8.29;;;;;;;;;;360863;146;859407;-57
2021/08/23 05:51:56;;;;;;;11.56;7.33;;;;;;;;;;360364;146;857267;-57
2021/08/23 05:52:58;;;;;;;16.08;7.12;;;;;;;;;;363170;147;866163;-58
2021/08/23 05:54:00;;;;;;;11.31;7.59;;;;;;;;;;362516;146;857170;-58
2021/08/23 05:55:01;;;;;;;13.06;7.43;;;;;;;;;;361746;146;857692;-57
2021/08/23 05:56:03;;;;;;;11.11;7.01;;;;;;;;;;358136;147;859181;-58
2021/08/23 05:57:05;;;;;;;14.70;7.69;;;;;;;;;;360121;146;864979;-57
2021/08/23 05:58:06;;;;;;;11.16;7.28;;;;;;;;;;360503;146;865858;-57
2021/08/23 05:59:08;;;;;;;10.90;6.81;;;;;;;;;;355703;150;864987;-57
2021/08/23 06:00:11;;;;;;;9.35;6.65;;;;;;;;;;349280;152;859433;-58
2021/08/23 06:01:12;;;;;;;15.72;7.91;;;;;;;;;;351415;151;860271;-58
2021/08/23 06:02:14;;;;;;;10.44;6.56;;;;;;;;;;351231;151;861302;-57
2021/08/23 06:03:16;;;;;;;11.67;7.15;;;;;;;;;;350081;150;857776;-59
2021/08/23 06:04:19;;;;;;;10.53;7.25;;;;;;;;;;348426;151;856454;-58
2021/08/23 06:05:21;;;;;;;9.83;6.72;;;;;;;;;;354529;149;856498;-57
2021/08/23 06:06:23;;;;;;;10.85;7.25;;;;;;;;;;354337;150;857537;-58
2021/08/23 06:07:25;;;;;;;12.16;6.49;;;;;;;;;;347779;153;859297;-58
2021/08/23 06:08:26;;;;;;;10.57;6.58;;;;;;;;;;347468;151;857195;-57
2021/08/23 06:09:28;;;;;;;12.19;6.97;;;;;;;;;;349294;149;857466;-56
2021/08/23 06:10:31;;;;;;;10.97;6.99;;;;;;;;;;353456;152;857142;-57
2021/08/23 06:11:32;;;;;;;11.95;6.79;;;;;;;;;;349583;151;864943;-55
2021/08/23 06:12:34;;;;;;;10.96;6.96;;;;;;;;;;348131;149;857295;-58
2021/08/23 06:13:36;;;;;;;12.40;6.61;;;;;;;;;;350909;150;867026;-57
2021/08/23 06:14:40;;;;;;;9.67;5.99;;;;;;;;;;352847;150;857199;-56